Time;durP1;ratioP1;P1;durP2;ratioP2;P2;SDS_P1;SDS_P2;PMS_P1;PMS_P2;Temp;Humidity;BMP_temperature;BMP_pressure;BME280_temperature;BME280_humidity;BME280_pressure;Samples;Min_cycle;Max_cycle;Signal;HPM_P1;HPM_P2
2022/11/23 00:01:01;;;;;;;6.28;4.70;;;;;;;;;;5025134;28;20043;-76
2022/11/23 00:03:30;;;;;;;6.15;5.55;;;;;;;;;;5042018;28;20546;-76
2022/11/23 00:06:12;;;;;;;5.65;4.97;;;;;;;;;;5058089;28;20039;-74
2022/11/23 00:08:38;;;;;;;5.00;4.55;;;;;;;;;;5041445;28;20043;-76
2022/11/23 00:11:04;;;;;;;8.18;4.60;;;;;;;;;;5050415;28;20051;-77
2022/11/23 00:13:30;;;;;;;7.97;4.95;;;;;;;;;;5001173;28;20041;-76
2022/11/23 00:15:56;;;;;;;6.78;6.10;;;;;;;;;;4999815;28;20048;-75
2022/11/23 00:18:24;;;;;;;8.70;7.15;;;;;;;;;;5033215;28;20115;-75
2022/11/23 00:20:52;;;;;;;9.88;5.40;;;;;;;;;;5001738;28;20041;-76
2022/11/23 00:23:20;;;;;;;5.47;4.85;;;;;;;;;;5017823;28;20554;-75
2022/11/23 00:25:50;;;;;;;9.55;5.93;;;;;;;;;;5018847;28;20037;-75
2022/11/23 00:28:18;;;;;;;9.68;6.35;;;;;;;;;;5019366;28;20063;-75
2022/11/23 00:30:49;;;;;;;6.43;5.32;;;;;;;;;;5017736;28;20049;-75
2022/11/23 00:33:18;;;;;;;8.70;5.30;;;;;;;;;;5000195;28;20045;-74
2022/11/23 00:35:59;;;;;;;9.65;8.65;;;;;;;;;;5007527;28;20109;-74
2022/11/23 00:38:30;;;;;;;10.45;8.68;;;;;;;;;;5003579;28;20079;-75
2022/11/23 00:40:59;;;;;;;10.25;6.60;;;;;;;;;;5005277;28;20521;-75
2022/11/23 00:43:57;;;;;;;5.97;5.47;;;;;;;;;;5077307;28;20082;-75
2022/11/23 00:46:44;;;;;;;7.53;5.78;;;;;;;;;;5059551;28;20408;-75
2022/11/23 00:49:14;;;;;;;5.18;4.68;;;;;;;;;;5045311;28;20533;-74
2022/11/23 00:51:42;;;;;;;7.97;7.20;;;;;;;;;;5027905;28;20507;-75
2022/11/23 00:54:10;;;;;;;7.07;6.40;;;;;;;;;;5042535;28;20424;-75
2022/11/23 00:56:36;;;;;;;8.52;7.13;;;;;;;;;;5041807;28;20036;-75
2022/11/23 00:59:02;;;;;;;7.35;6.75;;;;;;;;;;5093282;28;20082;-75
2022/11/23 01:01:33;;;;;;;5.93;5.47;;;;;;;;;;5025139;28;20039;-75
2022/11/23 01:04:10;;;;;;;7.93;7.15;;;;;;;;;;5028778;28;20105;-74
2022/11/23 01:06:48;;;;;;;8.10;5.60;;;;;;;;;;5042808;28;20142;-75
2022/11/23 01:09:25;;;;;;;7.35;6.30;;;;;;;;;;5041806;28;20619;-74
2022/11/23 01:11:55;;;;;;;10.77;6.10;;;;;;;;;;5027912;28;20029;-74
2022/11/23 01:14:22;;;;;;;10.30;9.35;;;;;;;;;;5071607;28;20048;-74
2022/11/23 01:16:50;;;;;;;6.82;6.18;;;;;;;;;;5036337;28;20102;-76
2022/11/23 01:19:21;;;;;;;6.35;5.75;;;;;;;;;;5054069;28;20033;-75
2022/11/23 01:21:50;;;;;;;9.88;8.25;;;;;;;;;;5020879;28;20083;-76
2022/11/23 01:24:22;;;;;;;6.95;6.03;;;;;;;;;;5004224;28;20059;-74
2022/11/23 01:26:52;;;;;;;11.07;6.75;;;;;;;;;;5020415;28;20047;-73
2022/11/23 01:29:19;;;;;;;14.30;6.07;;;;;;;;;;5019411;28;20598;-74
2022/11/23 01:31:47;;;;;;;7.78;5.85;;;;;;;;;;5032645;28;20591;-75
2022/11/23 01:34:15;;;;;;;9.70;5.43;;;;;;;;;;5038208;28;20075;-75
2022/11/23 01:36:43;;;;;;;8.20;7.50;;;;;;;;;;4995878;28;20127;-75
2022/11/23 01:39:14;;;;;;;8.80;5.15;;;;;;;;;;4999191;28;20636;-75
2022/11/23 01:41:41;;;;;;;7.28;5.80;;;;;;;;;;5031028;28;20033;-74
2022/11/23 01:44:30;;;;;;;7.45;4.63;;;;;;;;;;5014260;28;20519;-75
2022/11/23 01:46:59;;;;;;;4.40;4.03;;;;;;;;;;5013315;28;20052;-73
2022/11/23 01:49:27;;;;;;;7.80;6.95;;;;;;;;;;5002789;28;20491;-75
2022/11/23 01:51:58;;;;;;;6.80;5.57;;;;;;;;;;5003121;28;20060;-76
2022/11/23 01:54:30;;;;;;;4.30;4.00;;;;;;;;;;5002920;28;20025;-75
2022/11/23 01:56:59;;;;;;;4.38;3.95;;;;;;;;;;5000098;28;20100;-73
2022/11/23 01:59:25;;;;;;;5.80;5.25;;;;;;;;;;4998861;28;20033;-76
2022/11/23 02:01:53;;;;;;;6.25;4.63;;;;;;;;;;4999423;28;20532;-75
2022/11/23 02:04:22;;;;;;;6.60;5.93;;;;;;;;;;5050461;28;20029;-76
2022/11/23 02:06:50;;;;;;;6.07;4.93;;;;;;;;;;5038546;28;20094;-73
2022/11/23 02:09:18;;;;;;;6.13;5.45;;;;;;;;;;5035918;28;20033;-73
2022/11/23 02:14:45;;;;;;;4.40;4.00;;;;;;;;;;5052113;28;20033;-74
2022/11/23 02:17:12;;;;;;;6.35;5.75;;;;;;;;;;5019039;28;20060;-74
2022/11/23 02:19:46;;;;;;;5.65;3.83;;;;;;;;;;5035799;28;20064;-74
2022/11/23 02:22:21;;;;;;;4.30;3.90;;;;;;;;;;5051187;28;20083;-75
2022/11/23 02:24:48;;;;;;;5.10;3.63;;;;;;;;;;5004231;28;20029;-75
2022/11/23 02:27:19;;;;;;;8.38;7.25;;;;;;;;;;5039015;28;20036;-75
2022/11/23 02:29:46;;;;;;;4.30;3.90;;;;;;;;;;5020923;28;20049;-74
2022/11/23 02:32:18;;;;;;;4.65;4.25;;;;;;;;;;5037060;28;20072;-75
2022/11/23 02:34:49;;;;;;;10.07;5.78;;;;;;;;;;5036682;28;20045;-74
2022/11/23 02:37:17;;;;;;;4.85;4.43;;;;;;;;;;5039845;28;20139;-75
2022/11/23 02:39:49;;;;;;;9.25;5.93;;;;;;;;;;5040841;28;20037;-75
2022/11/23 02:42:15;;;;;;;10.80;4.10;;;;;;;;;;5040213;28;20036;-75
2022/11/23 02:44:55;;;;;;;10.00;4.97;;;;;;;;;;5023563;28;20075;-73
2022/11/23 02:47:24;;;;;;;5.22;4.72;;;;;;;;;;5039804;28;20036;-74
2022/11/23 02:49:52;;;;;;;10.88;6.60;;;;;;;;;;5023453;28;20036;-75
2022/11/23 02:52:18;;;;;;;7.50;5.88;;;;;;;;;;5019230;28;20132;-74
2022/11/23 02:54:49;;;;;;;9.85;5.90;;;;;;;;;;5020563;28;20037;-76
2022/11/23 02:57:16;;;;;;;13.38;7.07;;;;;;;;;;5002474;28;20106;-76
2022/11/23 02:59:47;;;;;;;20.05;9.13;;;;;;;;;;5020135;28;20044;-75
2022/11/23 03:02:14;;;;;;;7.43;6.30;;;;;;;;;;5024978;28;20037;-75
2022/11/23 03:04:40;;;;;;;10.35;6.10;;;;;;;;;;5051070;28;20032;-73
2022/11/23 03:07:08;;;;;;;7.05;5.47;;;;;;;;;;4982167;28;20571;-74
2022/11/23 03:09:36;;;;;;;7.90;4.88;;;;;;;;;;5000564;28;20033;-74
2022/11/23 03:12:05;;;;;;;8.00;4.07;;;;;;;;;;5013691;28;20100;-74
2022/11/23 03:14:31;;;;;;;7.05;5.40;;;;;;;;;;4997614;28;20037;-73
2022/11/23 03:17:02;;;;;;;6.10;5.00;;;;;;;;;;5025484;28;20049;-74
2022/11/23 03:19:40;;;;;;;6.28;4.55;;;;;;;;;;5012134;28;20087;-74
2022/11/23 03:22:07;;;;;;;7.43;3.90;;;;;;;;;;5013942;28;20044;-72
2022/11/23 03:24:37;;;;;;;7.68;5.45;;;;;;;;;;5021239;28;20041;-74
2022/11/23 03:27:22;;;;;;;8.95;6.32;;;;;;;;;;5019665;28;20071;-75
2022/11/23 03:29:53;;;;;;;7.07;6.22;;;;;;;;;;5020962;28;20060;-72
2022/11/23 03:32:20;;;;;;;16.38;8.52;;;;;;;;;;5003307;28;20039;-74
2022/11/23 03:34:53;;;;;;;30.45;16.67;;;;;;;;;;5035862;28;20040;-74
2022/11/23 03:37:24;;;;;;;19.40;10.52;;;;;;;;;;5051449;28;20084;-74
2022/11/23 03:39:53;;;;;;;;;;;;;;;;;;5002873;28;20124;-73
2022/11/23 03:42:44;;;;;;;23.80;11.38;;;;;;;;;;5036738;28;19912;-75
2022/11/23 03:45:14;;;;;;;41.25;18.15;;;;;;;;;;5001992;28;20032;-75
2022/11/23 03:47:42;;;;;;;30.13;13.60;;;;;;;;;;5068065;28;20032;-75
2022/11/23 03:50:11;;;;;;;23.55;13.40;;;;;;;;;;5054005;28;20038;-75
2022/11/23 03:52:38;;;;;;;40.70;16.98;;;;;;;;;;5019593;28;20044;-75
2022/11/23 03:55:06;;;;;;;65.30;22.50;;;;;;;;;;5020150;28;20131;-73
2022/11/23 03:57:33;;;;;;;33.65;16.70;;;;;;;;;;5020512;28;20040;-72
2022/11/23 04:00:08;;;;;;;33.75;15.30;;;;;;;;;;5037487;28;20028;-75
2022/11/23 04:02:45;;;;;;;29.38;13.07;;;;;;;;;;5055126;28;20071;-74
2022/11/23 04:08:44;;;;;;;37.72;16.27;;;;;;;;;;5059253;28;20119;-71
2022/11/23 04:11:27;;;;;;;36.58;15.40;;;;;;;;;;5050838;28;20137;-74
2022/11/23 04:14:04;;;;;;;27.15;11.60;;;;;;;;;;5026441;28;20120;-73
2022/11/23 04:16:38;;;;;;;25.70;12.45;;;;;;;;;;5042291;28;20025;-74
2022/11/23 04:19:07;;;;;;;19.48;10.82;;;;;;;;;;5025020;28;20145;-74
2022/11/23 04:21:34;;;;;;;14.73;9.68;;;;;;;;;;5035263;28;20116;-73
2022/11/23 04:24:00;;;;;;;23.85;11.63;;;;;;;;;;5043654;28;20116;-75
2022/11/23 04:26:28;;;;;;;18.48;8.50;;;;;;;;;;5048704;28;20037;-74
2022/11/23 04:29:03;;;;;;;15.25;8.18;;;;;;;;;;5021091;28;20039;-75
2022/11/23 04:31:56;;;;;;;12.35;7.22;;;;;;;;;;5037857;28;20773;-74
2022/11/23 04:34:24;;;;;;;18.38;9.88;;;;;;;;;;5067703;28;20036;-74
2022/11/23 04:36:52;;;;;;;16.08;8.98;;;;;;;;;;5031961;28;20044;-74
2022/11/23 04:39:29;;;;;;;13.07;8.65;;;;;;;;;;5037682;28;20370;-74
2022/11/23 04:42:12;;;;;;;12.88;7.95;;;;;;;;;;5054039;28;20033;-76
2022/11/23 04:45:04;;;;;;;8.73;6.60;;;;;;;;;;5052404;28;20059;-74
2022/11/23 04:47:35;;;;;;;11.70;8.57;;;;;;;;;;5051493;28;20534;-74
2022/11/23 04:50:07;;;;;;;16.95;10.43;;;;;;;;;;5052997;28;20059;-75
2022/11/23 04:52:33;;;;;;;15.85;12.23;;;;;;;;;;5018763;28;20033;-74
2022/11/23 04:54:59;;;;;;;15.35;9.02;;;;;;;;;;5034985;28;20047;-74
2022/11/23 04:57:56;;;;;;;12.48;9.82;;;;;;;;;;5043654;28;20463;-75
2022/11/23 05:00:37;;;;;;;12.13;8.38;;;;;;;;;;5039483;28;20162;-75
2022/11/23 05:03:11;;;;;;;12.88;9.30;;;;;;;;;;5037080;28;20093;-75
2022/11/23 05:06:01;;;;;;;11.80;7.65;;;;;;;;;;5038428;28;20415;-74
2022/11/23 05:08:38;;;;;;;15.60;9.25;;;;;;;;;;5038228;28;20174;-74
2022/11/23 05:11:25;;;;;;;14.80;9.18;;;;;;;;;;5043301;28;20032;-77
2022/11/23 05:14:02;;;;;;;18.15;9.75;;;;;;;;;;5071028;28;20043;-75
2022/11/23 05:16:37;;;;;;;19.70;11.63;;;;;;;;;;5039715;28;20044;-75
2022/11/23 05:19:06;;;;;;;16.40;10.90;;;;;;;;;;5037677;28;20036;-75
2022/11/23 05:22:00;;;;;;;12.63;7.78;;;;;;;;;;5045756;28;20035;-76
2022/11/23 05:24:32;;;;;;;16.35;9.35;;;;;;;;;;5053855;28;20052;-75
2022/11/23 05:27:19;;;;;;;17.95;10.45;;;;;;;;;;5055951;28;20066;-76
2022/11/23 05:29:54;;;;;;;19.05;11.52;;;;;;;;;;5070904;28;20036;-76
2022/11/23 05:32:21;;;;;;;18.08;10.38;;;;;;;;;;5020578;28;20123;-75
2022/11/23 05:34:50;;;;;;;16.92;9.77;;;;;;;;;;5069989;28;20104;-77
2022/11/23 05:37:17;;;;;;;19.30;10.80;;;;;;;;;;5054039;28;20056;-77
2022/11/23 05:40:11;;;;;;;20.08;10.75;;;;;;;;;;5055438;28;20128;-76
2022/11/23 05:42:40;;;;;;;19.50;10.73;;;;;;;;;;5036970;28;20045;-75
2022/11/23 05:45:21;;;;;;;17.80;9.20;;;;;;;;;;5036899;28;20033;-77
2022/11/23 05:47:53;;;;;;;17.95;9.10;;;;;;;;;;5035169;28;20798;-75
2022/11/23 05:50:31;;;;;;;16.33;8.93;;;;;;;;;;5035241;28;20032;-75
2022/11/23 05:53:22;;;;;;;19.85;11.30;;;;;;;;;;5023985;28;20037;-75
2022/11/23 05:56:01;;;;;;;14.55;9.30;;;;;;;;;;5020021;28;20095;-75
2022/11/23 05:58:30;;;;;;;15.88;10.32;;;;;;;;;;5034720;28;20350;-76
2022/11/23 06:00:58;;;;;;;13.45;10.05;;;;;;;;;;5018381;28;20036;-75
2022/11/23 06:03:28;;;;;;;16.55;8.50;;;;;;;;;;5018218;28;20028;-76
2022/11/23 06:05:56;;;;;;;20.23;12.57;;;;;;;;;;5050964;28;20488;-75
2022/11/23 06:08:31;;;;;;;14.63;9.52;;;;;;;;;;5034921;28;20045;-72
2022/11/23 06:11:01;;;;;;;17.85;10.98;;;;;;;;;;5049179;28;20044;-73
2022/11/23 06:13:28;;;;;;;12.23;8.57;;;;;;;;;;5008818;28;20032;-73
2022/11/23 06:15:56;;;;;;;22.70;12.60;;;;;;;;;;5049826;28;20120;-73
2022/11/23 06:18:34;;;;;;;16.13;9.50;;;;;;;;;;5017744;28;20083;-73
2022/11/23 06:21:01;;;;;;;12.88;8.35;;;;;;;;;;5035454;28;20024;-72
2022/11/23 06:23:29;;;;;;;19.17;10.32;;;;;;;;;;5034026;28;20041;-73
2022/11/23 06:26:00;;;;;;;;;;;;;;;;;;5030059;28;20032;-75
2022/11/23 06:28:29;;;;;;;18.80;10.00;;;;;;;;;;5049890;28;20302;-75
2022/11/23 06:31:01;;;;;;;19.73;9.52;;;;;;;;;;5066577;28;20491;-75
2022/11/23 06:33:27;;;;;;;31.02;14.82;;;;;;;;;;5043840;28;20579;-74
2022/11/23 06:35:57;;;;;;;30.67;14.02;;;;;;;;;;5049327;28;20083;-75
2022/11/23 06:38:30;;;;;;;37.95;14.10;;;;;;;;;;5034225;28;20051;-75
2022/11/23 06:41:23;;;;;;;25.08;11.23;;;;;;;;;;5063565;28;20040;-76
2022/11/23 06:43:58;;;;;;;28.27;13.18;;;;;;;;;;5058151;28;20038;-76
2022/11/23 06:46:41;;;;;;;39.42;13.77;;;;;;;;;;5037300;28;20091;-77
2022/11/23 06:49:11;;;;;;;38.47;13.25;;;;;;;;;;5009670;28;20037;-77
2022/11/23 06:51:47;;;;;;;40.17;13.95;;;;;;;;;;5052993;28;20047;-74
2022/11/23 06:54:34;;;;;;;34.55;12.88;;;;;;;;;;5052748;28;20533;-74
2022/11/23 06:57:01;;;;;;;36.83;13.90;;;;;;;;;;5034128;28;20080;-75
2022/11/23 06:59:29;;;;;;;37.88;14.27;;;;;;;;;;5035632;28;20062;-74
2022/11/23 07:01:55;;;;;;;52.78;18.15;;;;;;;;;;5066455;28;20569;-74
2022/11/23 07:04:26;;;;;;;38.30;15.07;;;;;;;;;;5042670;28;20036;-74
2022/11/23 07:06:52;;;;;;;36.92;13.73;;;;;;;;;;5061853;28;20055;-74
2022/11/23 07:09:28;;;;;;;41.30;15.00;;;;;;;;;;5063416;28;20516;-75
2022/11/23 07:12:15;;;;;;;41.67;16.55;;;;;;;;;;5059546;28;20052;-74
2022/11/23 07:18:45;;;;;;;53.80;20.92;;;;;;;;;;5058766;28;20044;-75
2022/11/23 07:22:06;;;;;;;44.60;16.17;;;;;;;;;;5063461;28;20550;-75
2022/11/23 07:24:34;;;;;;;34.00;13.80;;;;;;;;;;5049672;28;20091;-75
2022/11/23 07:27:00;;;;;;;30.08;11.73;;;;;;;;;;5026982;28;20020;-75
2022/11/23 07:29:26;;;;;;;38.85;15.45;;;;;;;;;;5017203;28;20040;-76
2022/11/23 07:34:49;;;;;;;23.88;13.27;;;;;;;;;;5036692;28;20072;-74
2022/11/23 07:37:16;;;;;;;45.50;23.08;;;;;;;;;;4996774;28;20060;-74
2022/11/23 07:40:08;;;;;;;46.95;25.98;;;;;;;;;;5012742;28;20464;-74
2022/11/23 07:42:37;;;;;;;31.20;17.25;;;;;;;;;;5001365;28;20026;-75
2022/11/23 07:45:05;;;;;;;43.63;23.23;;;;;;;;;;5008040;28;20604;-74
2022/11/23 07:47:58;;;;;;;41.58;21.48;;;;;;;;;;4990992;28;20034;-73
2022/11/23 07:53:17;;;;;;;36.70;19.13;;;;;;;;;;4990290;28;20029;-74
2022/11/23 07:55:44;;;;;;;47.15;19.65;;;;;;;;;;4991224;28;20727;-74
2022/11/23 07:58:10;;;;;;;31.38;17.10;;;;;;;;;;5028074;28;20068;-75
2022/11/23 08:00:40;;;;;;;21.00;10.95;;;;;;;;;;5017362;28;20038;-74
2022/11/23 08:03:08;;;;;;;42.43;19.13;;;;;;;;;;4989166;28;20041;-74
2022/11/23 08:05:35;;;;;;;123.93;37.92;;;;;;;;;;4982909;28;20037;-74
2022/11/23 08:08:03;;;;;;;58.60;30.45;;;;;;;;;;4980525;28;20422;-74
2022/11/23 08:10:30;;;;;;;34.25;17.88;;;;;;;;;;4974265;28;20207;-75
2022/11/23 08:12:58;;;;;;;32.80;14.10;;;;;;;;;;4995518;28;20087;-73
2022/11/23 08:15:26;;;;;;;25.80;13.85;;;;;;;;;;4992950;28;20060;-75
2022/11/23 08:17:53;;;;;;;19.48;11.32;;;;;;;;;;5008742;28;20137;-74
2022/11/23 08:20:19;;;;;;;19.73;10.73;;;;;;;;;;5012620;28;20141;-75
2022/11/23 08:22:47;;;;;;;27.98;13.82;;;;;;;;;;5026090;28;20124;-74
2022/11/23 08:25:15;;;;;;;34.50;15.30;;;;;;;;;;5035110;28;20044;-75
2022/11/23 08:27:43;;;;;;;44.40;15.50;;;;;;;;;;5014979;28;20040;-75
2022/11/23 08:30:35;;;;;;;35.45;16.73;;;;;;;;;;5021377;28;20780;-75
2022/11/23 08:33:03;;;;;;;35.55;14.25;;;;;;;;;;4998401;28;20470;-75
2022/11/23 08:35:37;;;;;;;37.78;14.77;;;;;;;;;;5014422;28;20059;-75
2022/11/23 08:38:03;;;;;;;70.57;21.20;;;;;;;;;;5033807;28;20851;-75
2022/11/23 08:40:31;;;;;;;32.38;12.43;;;;;;;;;;5034319;28;20040;-75
2022/11/23 08:43:05;;;;;;;30.17;14.60;;;;;;;;;;5045744;28;20036;-75
2022/11/23 08:45:32;;;;;;;41.13;15.80;;;;;;;;;;5025424;28;20068;-76
2022/11/23 08:47:59;;;;;;;23.20;14.05;;;;;;;;;;5025687;28;20048;-76
2022/11/23 08:50:31;;;;;;;24.60;15.32;;;;;;;;;;5025817;28;20060;-74
2022/11/23 08:52:59;;;;;;;;;;;;;;;;;;5025810;28;20033;-76
2022/11/23 08:55:25;;;;;;;21.80;8.57;;;;;;;;;;5023699;28;19913;-75
2022/11/23 08:58:03;;;;;;;19.65;12.52;;;;;;;;;;4990075;28;20129;-76
2022/11/23 09:00:40;;;;;;;14.07;9.32;;;;;;;;;;4982719;28;20049;-75
2022/11/23 09:03:32;;;;;;;12.15;9.30;;;;;;;;;;4992697;28;20079;-75
2022/11/23 09:06:02;;;;;;;16.90;9.80;;;;;;;;;;5025688;28;20042;-76
2022/11/23 09:08:28;;;;;;;19.80;12.10;;;;;;;;;;5007708;28;20037;-74
2022/11/23 09:11:25;;;;;;;18.85;13.25;;;;;;;;;;5006400;28;20536;-76
2022/11/23 09:13:52;;;;;;;19.30;13.50;;;;;;;;;;5008289;28;20107;-77
2022/11/23 09:16:19;;;;;;;12.55;9.38;;;;;;;;;;5036694;28;20049;-76
2022/11/23 09:18:45;;;;;;;17.52;13.13;;;;;;;;;;5038193;28;20048;-76
2022/11/23 09:21:15;;;;;;;17.00;13.38;;;;;;;;;;5064686;28;20052;-74
2022/11/23 09:23:44;;;;;;;10.73;9.23;;;;;;;;;;5039231;28;20115;-75
2022/11/23 09:26:13;;;;;;;9.25;8.27;;;;;;;;;;5044866;28;20047;-76
2022/11/23 09:28:41;;;;;;;16.48;12.68;;;;;;;;;;5081024;28;20047;-75
2022/11/23 09:31:08;;;;;;;9.00;8.15;;;;;;;;;;5017088;28;20456;-75
2022/11/23 09:33:35;;;;;;;11.10;8.60;;;;;;;;;;5011260;28;20724;-75
2022/11/23 09:36:04;;;;;;;9.55;7.82;;;;;;;;;;5013032;28;20041;-74
2022/11/23 09:38:35;;;;;;;11.93;10.32;;;;;;;;;;5048323;28;20057;-74
2022/11/23 09:41:28;;;;;;;12.48;10.07;;;;;;;;;;5064616;28;20161;-74
2022/11/23 09:44:27;;;;;;;12.02;10.77;;;;;;;;;;5047690;28;20051;-75
2022/11/23 09:46:54;;;;;;;;;;;;;;;;;;5093215;28;20545;-75
2022/11/23 09:49:21;;;;;;;13.65;7.80;;;;;;;;;;5094518;28;19907;-75
2022/11/23 09:51:49;;;;;;;14.27;12.48;;;;;;;;;;5087189;28;20070;-73
2022/11/23 09:54:25;;;;;;;14.93;11.93;;;;;;;;;;5083861;28;20036;-73
2022/11/23 09:56:53;;;;;;;12.57;8.10;;;;;;;;;;5084119;28;20561;-73
2022/11/23 09:59:37;;;;;;;14.43;10.73;;;;;;;;;;5083397;28;20130;-73
2022/11/23 10:02:07;;;;;;;15.35;11.80;;;;;;;;;;5061146;28;20194;-75
2022/11/23 10:08:16;;;;;;;24.50;15.45;;;;;;;;;;5066883;28;20047;-74
2022/11/23 10:10:43;;;;;;;20.13;14.13;;;;;;;;;;5066165;28;20036;-72
2022/11/23 10:13:35;;;;;;;11.07;9.73;;;;;;;;;;5067134;28;20035;-73
2022/11/23 10:16:20;;;;;;;16.40;11.43;;;;;;;;;;5062201;28;20044;-74
2022/11/23 10:19:04;;;;;;;11.68;10.27;;;;;;;;;;5047388;28;20103;-75
2022/11/23 10:21:33;;;;;;;16.83;12.60;;;;;;;;;;5049212;28;20033;-75
2022/11/23 10:24:11;;;;;;;13.30;10.27;;;;;;;;;;5067187;28;20074;-74
2022/11/23 10:26:38;;;;;;;17.75;11.50;;;;;;;;;;5068829;28;20043;-74
2022/11/23 10:29:23;;;;;;;23.55;17.73;;;;;;;;;;5068607;28;20083;-74
2022/11/23 10:31:51;;;;;;;17.75;13.60;;;;;;;;;;5070823;28;20127;-74
2022/11/23 10:34:38;;;;;;;29.10;18.30;;;;;;;;;;5070476;28;20407;-74
2022/11/23 10:37:07;;;;;;;20.35;13.57;;;;;;;;;;5080277;28;20106;-75
2022/11/23 10:39:36;;;;;;;21.65;14.20;;;;;;;;;;5073084;28;20036;-74
2022/11/23 10:42:02;;;;;;;24.23;15.70;;;;;;;;;;5090572;28;20044;-75
2022/11/23 10:44:30;;;;;;;22.50;16.02;;;;;;;;;;5055488;28;20068;-75
2022/11/23 10:46:57;;;;;;;39.15;20.15;;;;;;;;;;5072573;28;20043;-75
2022/11/23 10:49:22;;;;;;;37.13;19.38;;;;;;;;;;5055850;28;20040;-75
2022/11/23 10:51:54;;;;;;;34.33;16.17;;;;;;;;;;5072742;28;20483;-75
2022/11/23 10:54:22;;;;;;;48.65;24.80;;;;;;;;;;5090669;28;20070;-75
2022/11/23 10:56:51;;;;;;;45.88;22.80;;;;;;;;;;5090322;28;20044;-76
2022/11/23 10:59:31;;;;;;;26.45;15.38;;;;;;;;;;5090627;28;20047;-77
2022/11/23 11:02:02;;;;;;;33.03;22.08;;;;;;;;;;5090367;28;20136;-74
2022/11/23 11:04:29;;;;;;;33.15;15.98;;;;;;;;;;5038595;28;20051;-74
2022/11/23 11:07:16;;;;;;;23.08;15.90;;;;;;;;;;5052727;28;20028;-76
2022/11/23 11:09:42;;;;;;;25.38;17.33;;;;;;;;;;5035926;28;20568;-76
2022/11/23 11:12:19;;;;;;;23.02;15.38;;;;;;;;;;5072282;28;20027;-75
2022/11/23 11:14:54;;;;;;;22.67;16.23;;;;;;;;;;5058382;28;20036;-74
2022/11/23 11:17:28;;;;;;;27.20;20.13;;;;;;;;;;5043739;28;20056;-75
2022/11/23 11:19:54;;;;;;;38.60;26.25;;;;;;;;;;5094987;28;20067;-76
2022/11/23 11:22:24;;;;;;;31.35;20.08;;;;;;;;;;5077918;28;20036;-76
2022/11/23 11:24:52;;;;;;;33.35;21.45;;;;;;;;;;5066174;28;20527;-75
2022/11/23 11:27:20;;;;;;;30.20;19.95;;;;;;;;;;5085061;28;20032;-76
2022/11/23 11:29:52;;;;;;;46.40;30.70;;;;;;;;;;5072086;28;20036;-76
2022/11/23 11:32:38;;;;;;;37.20;23.20;;;;;;;;;;5089580;28;20043;-76
2022/11/23 11:35:11;;;;;;;13.57;12.15;;;;;;;;;;5088499;28;20529;-76
2022/11/23 11:37:45;;;;;;;17.83;14.18;;;;;;;;;;5082001;28;20055;-74
2022/11/23 11:40:16;;;;;;;20.73;15.20;;;;;;;;;;5071047;28;20127;-75
2022/11/23 11:42:44;;;;;;;36.58;18.58;;;;;;;;;;5050963;28;20039;-74
2022/11/23 11:45:30;;;;;;;23.30;17.38;;;;;;;;;;5088281;28;20449;-75
2022/11/23 11:47:58;;;;;;;27.45;16.77;;;;;;;;;;5089368;28;20406;-75
2022/11/23 11:50:28;;;;;;;25.67;16.70;;;;;;;;;;5071340;28;20047;-74
2022/11/23 11:53:06;;;;;;;14.35;10.77;;;;;;;;;;5062694;28;20504;-74
2022/11/23 11:55:34;;;;;;;27.58;19.88;;;;;;;;;;5088524;28;20105;-74
2022/11/23 11:58:00;;;;;;;17.77;15.90;;;;;;;;;;5088777;28;20603;-75
2022/11/23 12:00:26;;;;;;;24.73;19.15;;;;;;;;;;5088512;28;20111;-74
2022/11/23 12:03:03;;;;;;;25.60;20.25;;;;;;;;;;5068185;28;20086;-73
2022/11/23 12:05:35;;;;;;;40.80;27.85;;;;;;;;;;5070571;28;20051;-74
2022/11/23 12:08:06;;;;;;;26.33;18.10;;;;;;;;;;5083272;28;20035;-75
2022/11/23 12:10:35;;;;;;;26.13;18.42;;;;;;;;;;5049434;28;20458;-74
2022/11/23 12:13:01;;;;;;;30.58;22.95;;;;;;;;;;5084445;28;20115;-73
2022/11/23 12:15:35;;;;;;;34.30;21.17;;;;;;;;;;5068045;28;20035;-75
2022/11/23 12:18:21;;;;;;;33.90;23.15;;;;;;;;;;5033803;28;20147;-75
2022/11/23 12:20:58;;;;;;;38.95;27.92;;;;;;;;;;5079855;28;20036;-74
2022/11/23 12:23:25;;;;;;;20.63;18.15;;;;;;;;;;5077048;28;20042;-73
2022/11/23 12:26:17;;;;;;;37.63;22.08;;;;;;;;;;5035924;28;20035;-74
2022/11/23 12:29:26;;;;;;;35.38;20.92;;;;;;;;;;5074306;28;20043;-74
2022/11/23 12:32:11;;;;;;;41.72;21.70;;;;;;;;;;5027046;28;20037;-73
2022/11/23 12:34:51;;;;;;;32.40;19.20;;;;;;;;;;5047434;28;20081;-72
2022/11/23 12:37:38;;;;;;;43.75;23.83;;;;;;;;;;5034367;28;20037;-74
2022/11/23 12:40:31;;;;;;;32.72;20.02;;;;;;;;;;5014052;28;20052;-74
2022/11/23 12:43:00;;;;;;;24.75;15.68;;;;;;;;;;5007486;28;20128;-75
2022/11/23 12:45:52;;;;;;;31.33;22.50;;;;;;;;;;4975425;28;20037;-74
2022/11/23 12:48:25;;;;;;;39.20;23.80;;;;;;;;;;5005525;28;20033;-74
2022/11/23 12:50:56;;;;;;;31.55;21.35;;;;;;;;;;4990338;28;20596;-73
2022/11/23 12:53:31;;;;;;;31.20;22.38;;;;;;;;;;4970538;28;20030;-74
2022/11/23 12:56:02;;;;;;;23.65;19.58;;;;;;;;;;4987906;28;20042;-73
2022/11/23 12:58:29;;;;;;;24.50;19.90;;;;;;;;;;4988732;28;20045;-73
2022/11/23 13:01:15;;;;;;;22.67;19.73;;;;;;;;;;4971594;28;20152;-73
2022/11/23 13:03:49;;;;;;;24.77;18.88;;;;;;;;;;4939385;28;20047;-73
2022/11/23 13:06:21;;;;;;;25.95;17.25;;;;;;;;;;4915327;29;20031;-74
2022/11/23 13:09:11;;;;;;;24.33;19.00;;;;;;;;;;4931092;28;20102;-75
2022/11/23 13:11:43;;;;;;;18.85;15.35;;;;;;;;;;4906839;29;20200;-74
2022/11/23 13:14:11;;;;;;;27.13;19.17;;;;;;;;;;4930539;29;20035;-74
2022/11/23 13:16:53;;;;;;;22.10;19.60;;;;;;;;;;4931793;28;20035;-74
2022/11/23 13:19:43;;;;;;;33.50;24.83;;;;;;;;;;4930731;29;20047;-73
2022/11/23 13:22:22;;;;;;;30.40;21.85;;;;;;;;;;4942185;28;20141;-73
2022/11/23 13:25:08;;;;;;;21.85;18.10;;;;;;;;;;4915701;29;20127;-74
2022/11/23 13:27:44;;;;;;;19.05;16.60;;;;;;;;;;4904727;28;21096;-72
2022/11/23 13:30:32;;;;;;;16.65;15.07;;;;;;;;;;4884946;29;20050;-74
2022/11/23 13:33:19;;;;;;;14.75;13.35;;;;;;;;;;4917116;29;20503;-73
2022/11/23 13:35:52;;;;;;;20.02;17.90;;;;;;;;;;4946650;28;20559;-73
2022/11/23 13:42:18;;;;;;;24.38;20.92;;;;;;;;;;4941292;28;20141;-73
2022/11/23 13:44:47;;;;;;;16.17;13.35;;;;;;;;;;4918908;28;20034;-74
2022/11/23 13:47:18;;;;;;;17.05;15.35;;;;;;;;;;4937181;28;20034;-73
2022/11/23 13:50:09;;;;;;;16.00;12.95;;;;;;;;;;4953967;28;20040;-72
2022/11/23 13:52:45;;;;;;;16.33;14.57;;;;;;;;;;4952512;28;20034;-72
2022/11/23 13:55:19;;;;;;;12.68;11.38;;;;;;;;;;4940815;28;20050;-72
2022/11/23 13:57:47;;;;;;;12.27;11.13;;;;;;;;;;4964997;28;20053;-73
2022/11/23 14:00:33;;;;;;;11.82;10.85;;;;;;;;;;4942637;28;20514;-72
2022/11/23 14:03:20;;;;;;;17.95;16.27;;;;;;;;;;4954619;28;20303;-73
2022/11/23 14:05:59;;;;;;;11.45;10.32;;;;;;;;;;4949769;28;20124;-73
2022/11/23 14:08:25;;;;;;;9.73;8.93;;;;;;;;;;4940897;28;20040;-73
2022/11/23 14:10:55;;;;;;;14.07;12.82;;;;;;;;;;4950367;28;20120;-72
2022/11/23 14:13:27;;;;;;;15.35;13.15;;;;;;;;;;4941912;28;20034;-72
2022/11/23 14:15:55;;;;;;;15.38;13.80;;;;;;;;;;4945455;28;20042;-73
2022/11/23 14:18:39;;;;;;;22.67;20.25;;;;;;;;;;4983131;28;20060;-72
2022/11/23 14:21:20;;;;;;;15.30;13.68;;;;;;;;;;5015834;28;20501;-73
2022/11/23 14:24:05;;;;;;;17.45;15.80;;;;;;;;;;5012443;28;20038;-73
2022/11/23 14:26:42;;;;;;;14.20;12.95;;;;;;;;;;5004521;28;20025;-74
2022/11/23 14:29:31;;;;;;;12.57;11.30;;;;;;;;;;5016273;28;20058;-72
2022/11/23 14:32:04;;;;;;;10.02;9.13;;;;;;;;;;5025967;28;20072;-72
2022/11/23 14:34:32;;;;;;;15.02;13.48;;;;;;;;;;5028924;28;20030;-73
2022/11/23 14:37:06;;;;;;;12.25;11.15;;;;;;;;;;5015210;28;20520;-74
2022/11/23 14:39:42;;;;;;;13.57;12.38;;;;;;;;;;4996194;28;20048;-73
2022/11/23 14:42:16;;;;;;;13.52;12.23;;;;;;;;;;5013210;28;20135;-73
2022/11/23 14:44:44;;;;;;;13.07;11.38;;;;;;;;;;5016032;28;20060;-73
2022/11/23 14:47:10;;;;;;;14.40;12.70;;;;;;;;;;4990244;28;20550;-72
2022/11/23 14:49:51;;;;;;;12.38;11.10;;;;;;;;;;5016075;28;20033;-72
2022/11/23 14:52:28;;;;;;;9.07;8.27;;;;;;;;;;5012774;28;20037;-72
2022/11/23 14:55:00;;;;;;;12.27;9.85;;;;;;;;;;5012344;28;20039;-72
2022/11/23 14:57:36;;;;;;;7.57;6.20;;;;;;;;;;5029344;28;20056;-72
2022/11/23 15:00:06;;;;;;;9.68;7.60;;;;;;;;;;4998926;28;20116;-73
2022/11/23 15:02:33;;;;;;;8.40;7.57;;;;;;;;;;5046436;28;20037;-72
2022/11/23 15:05:03;;;;;;;10.02;9.13;;;;;;;;;;5031604;28;20029;-72
2022/11/23 15:07:48;;;;;;;10.57;9.68;;;;;;;;;;5026703;28;20037;-72
2022/11/23 15:10:29;;;;;;;13.90;12.48;;;;;;;;;;5014256;28;20048;-72
2022/11/23 15:12:58;;;;;;;10.02;8.90;;;;;;;;;;5019469;28;20052;-72
2022/11/23 15:15:32;;;;;;;15.33;14.03;;;;;;;;;;5028422;28;20029;-72
2022/11/23 15:18:01;;;;;;;12.95;11.73;;;;;;;;;;4990365;28;20045;-72
2022/11/23 15:20:31;;;;;;;14.98;12.93;;;;;;;;;;5007678;28;20037;-72
2022/11/23 15:22:58;;;;;;;15.07;13.45;;;;;;;;;;5004376;28;20094;-71
2022/11/23 15:25:29;;;;;;;10.68;9.68;;;;;;;;;;4998403;28;20029;-72